Data for 06/03/2005

Time Sea-Level Adjusted Pressure Absolute Pressure Temperature Relative Humidity Dew Point   
(mb) (inHg) (mb) (inHg) (C) (F) (%) (C) (F)
00:05 1011 29.85 840 24.81 6.8 44.3 92 5.6 42
00:10 1011 29.85 840 24.81 6.8 44.2 92 5.5 41.9
00:15 1011 29.85 840 24.81 6.8 44.2 92 5.6 42
00:20 1011 29.85 840 24.81 6.7 44.1 92 5.6 42
00:25 1011 29.85 840 24.81 6.7 44.1 94 5.8 42.4
00:30 1011 29.85 840 24.81 6.7 44 94 5.7 42.3
00:35 1011 29.85 840 24.81 6.5 43.8 95 5.8 42.4
00:40 1011 29.85 840 24.81 6.6 43.8 95 5.8 42.4
00:45 1011 29.85 840 24.81 6.5 43.7 95 5.7 42.3
00:50 1011 29.85 840 24.81 6.5 43.7 96 5.8 42.5
00:55 1011 29.85 840 24.81 6.5 43.8 95 5.9 42.5
01:00 1011 29.85 840 24.81 6.6 43.8 96 5.9 42.6
01:05 1011 29.85 840 24.81 6.4 43.6 95 5.8 42.4
01:10 1011 29.85 840 24.81 6.4 43.5 96 5.8 42.4
01:15 1011 29.85 840 24.81 6.4 43.4 96 5.8 42.5
01:20 1011 29.85 840 24.81 6.3 43.3 97 5.8 42.5
01:25 1011 29.85 840 24.81 6.3 43.4 97 5.9 42.6
01:30 1011 29.85 840 24.81 6.3 43.3 97 5.9 42.6
01:35 1011 29.85 840 24.81 6.3 43.3 97 5.9 42.6
01:40 1011 29.85 840 24.81 6.2 43.2 98 5.8 42.5
01:45 1011 29.85 841 24.83 6.3 43.3 98 5.9 42.7
01:50 1011 29.85 841 24.83 6.2 43.2 98 5.9 42.6
01:55 1011 29.85 840 24.81 6.2 43.2 98 5.9 42.7
02:00 1011 29.85 840 24.81 6.2 43.2 98 5.9 42.7
02:05 1011 29.85 840 24.81 6.2 43.2 98 6 42.7
02:10 1011 29.85 840 24.81 6.2 43.2 98 6 42.7
02:15 1011 29.85 840 24.81 6.3 43.3 98 5.9 42.7
02:20 1011 29.85 840 24.81 6.3 43.3 98 6 42.7
02:25 1011 29.85 840 24.81 6.3 43.3 98 6 42.7
02:30 1011 29.85 840 24.81 6.3 43.3 98 6 42.7
02:35 1011 29.85 840 24.81 6.2 43.2 98 5.9 42.7
02:40 1011 29.85 840 24.81 6.2 43.2 98 5.9 42.7
02:45 1011 29.85 840 24.81 6.2 43.2 98 5.9 42.6
02:50 1011 29.85 840 24.81 6.2 43.2 98 5.9 42.6
02:55 1011 29.85 840 24.81 6.2 43.2 98 5.9 42.6
03:00 1011 29.85 840 24.81 6.1 43.1 98 5.8 42.5
03:05 1011 29.85 840 24.81 6.2 43.1 98 5.8 42.5
03:10 1011 29.85 840 24.81 6.1 43 97 5.7 42.3
03:15 1011 29.85 840 24.81 6.1 43 97 5.7 42.2
03:20 1011 29.85 840 24.81 6.1 43 97 5.7 42.2
03:25 1011 29.85 840 24.81 6.1 42.9 95 5.3 41.6
03:30 1011 29.85 840 24.81 6.1 43 95 5.4 41.7
03:35 1011 29.85 840 24.81 6.1 42.9 95 5.4 41.7
03:40 1011 29.85 840 24.81 6 42.8 95 5.3 41.5
03:45 1011 29.85 840 24.81 6 42.8 94 5.1 41.2
03:50 1011 29.85 840 24.81 6 42.7 94 5.1 41.2
03:55 1011 29.85 840 24.81 6 42.8 93 5 40.9
04:00 1011 29.85 840 24.81 6.1 43 91 4.7 40.5
04:05 1011 29.85 840 24.81 6.2 43.1 90 4.6 40.4
04:10 1011 29.85 840 24.81 6.3 43.3 88 4.4 40
04:15 1011 29.85 840 24.81 6.3 43.4 87 4.4 39.9
04:20 1011 29.85 840 24.81 6.4 43.6 86 4.2 39.6
04:25 1011 29.85 840 24.81 6.5 43.8 85 4.2 39.5
04:30 1011 29.85 840 24.81 6.7 44 84 4.1 39.4
04:35 1011 29.85 840 24.81 6.8 44.2 82 3.9 38.9
04:40 1011 29.85 840 24.81 7 44.6 82 4 39.3
04:45 1011 29.85 840 24.81 7 44.5 83 4.2 39.6
04:50 1011 29.85 840 24.81 7 44.6 82 4.2 39.5
04:55 1011 29.85 840 24.81 7 44.6 83 4.4 39.9
05:00 1011 29.85 840 24.81 7 44.6 85 4.6 40.4
05:05 1011 29.85 840 24.81 6.9 44.5 87 4.9 40.8
05:10 1011 29.85 840 24.81 6.9 44.4 86 4.7 40.4
05:15 1011 29.85 840 24.81 6.8 44.3 86 4.6 40.3
05:20 1011 29.85 840 24.81 6.8 44.3 87 4.9 40.8
05:25 1011 29.85 840 24.81 6.7 44.1 89 5 41
05:30 1011 29.85 840 24.81 6.6 43.8 89 4.9 40.9
05:35 1011 29.85 840 24.81 6.5 43.7 89 4.9 40.8
05:40 1011 29.85 840 24.81 6.5 43.6 91 5.1 41.1
05:45 1011 29.85 840 24.81 6.4 43.5 89 4.7 40.5
05:50 1011 29.85 840 24.81 6.4 43.6 88 4.6 40.4
05:55 1011 29.85 840 24.81 6.4 43.5 87 4.4 40
06:00 1011 29.85 840 24.81 6.5 43.6 87 4.4 40
06:05 1011 29.85 840 24.81 6.4 43.5 88 4.5 40.1
06:10 1011 29.85 840 24.81 6.3 43.3 88 4.5 40.1
06:15 1011 29.85 840 24.81 6.3 43.3 88 4.4 39.9
06:20 1011 29.85 840 24.81 6.3 43.3 88 4.4 39.8
06:25 1011 29.85 840 24.81 6.4 43.4 86 4.1 39.4
06:30 1011 29.85 840 24.81 6.4 43.6 86 4.2 39.6
06:35 1011 29.85 840 24.81 6.5 43.7 85 4.1 39.4
06:40 1011 29.85 840 24.81 6.7 44 84 4.2 39.5
06:45 1011 29.85 840 24.81 6.8 44.3 83 4.2 39.5
06:50 1011 29.85 840 24.81 6.9 44.4 82 4.1 39.4
06:55 1011 29.85 840 24.81 7 44.6 83 4.2 39.6
07:00 1011 29.85 840 24.81 7.1 44.7 83 4.4 40
07:05 1011 29.85 840 24.81 7.1 44.8 84 4.5 40.1
07:10 1011 29.85 840 24.81 7.1 44.8 86 5 41
07:15 1011 29.85 840 24.81 7.1 44.8 88 5.3 41.6
07:20 1011 29.85 840 24.81 7 44.6 88 5.2 41.3
07:25 1011 29.85 841 24.83 7 44.5 89 5.3 41.5
07:30 1011 29.85 841 24.83 6.9 44.4 88 5 41
07:35 1011 29.85 841 24.83 6.9 44.4 89 5.2 41.4
07:40 1012 29.88 841 24.83 6.9 44.4 89 5.2 41.4
07:45 1012 29.88 841 24.83 6.9 44.4 90 5.4 41.7
07:50 1012 29.88 841 24.83 6.9 44.4 90 5.3 41.6
07:55 1012 29.88 841 24.83 6.9 44.3 90 5.4 41.7
08:00 1012 29.88 841 24.83 6.8 44.2 91 5.4 41.7
08:05 1012 29.88 841 24.83 6.8 44.2 92 5.5 42
08:10 1012 29.88 841 24.83 6.8 44.2 92 5.6 42
08:15 1012 29.88 841 24.83 6.9 44.3 92 5.6 42.1
08:20 1012 29.88 841 24.83 6.9 44.4 92 5.7 42.3
08:25 1012 29.88 841 24.83 6.9 44.5 91 5.5 42
08:30 1012 29.88 841 24.83 7 44.6 92 5.7 42.3
08:35 1012 29.88 841 24.83 7.1 44.8 91 5.7 42.3
08:40 1012 29.88 841 24.83 7.2 44.9 91 5.8 42.4
08:45 1012 29.88 841 24.83 7.2 45 90 5.6 42.1
08:50 1012 29.88 841 24.83 7.1 44.8 91 5.7 42.3
08:55 1012 29.88 841 24.83 7.1 44.7 91 5.7 42.2
09:00 1012 29.88 841 24.83 7.2 45 90 5.7 42.3
09:05 1012 29.88 841 24.83 7.3 45.2 90 5.8 42.5
09:10 1012 29.88 841 24.83 7.5 45.6 89 5.9 42.6
09:15 1012 29.88 841 24.83 7.8 46 87 5.7 42.3
09:20 1012 29.88 841 24.83 8 46.5 85 5.6 42.1
09:25 1012 29.88 841 24.83 8.1 46.6 86 5.9 42.6
09:30 1012 29.88 841 24.83 8.2 46.7 83 5.5 41.9
09:35 1012 29.88 841 24.83 8 46.5 87 6 42.7
09:40 1012 29.88 841 24.83 8.3 46.9 86 6.1 42.9
09:45 1012 29.88 841 24.83 8.7 47.6 83 6 42.8
09:50 1012 29.88 841 24.83 8.9 48 83 6.2 43.2
09:55 1012 29.88 841 24.83 9 48.2 83 6.3 43.3
10:00 1012 29.88 841 24.83 9 48.2 83 6.3 43.3
10:05 1012 29.88 841 24.83 9 48.2 85 6.6 43.8
10:10 1012 29.88 841 24.83 9.4 48.8 82 6.4 43.6
10:15 1012 29.88 841 24.83 9.4 48.9 81 6.3 43.4
10:20 1012 29.88 841 24.83 9.2 48.5 81 6 42.9
10:25 1012 29.88 841 24.83 9.4 48.9 81 6.3 43.4
10:30 1012 29.88 842 24.86 9.6 49.2 83 6.8 44.3
10:35 1012 29.88 842 24.86 9.7 49.4 78 6 42.8
10:40 1012 29.88 842 24.86 9.8 49.6 77 6 42.9
10:45 1012 29.88 842 24.86 10 49.9 77 6.2 43.2
10:50 1012 29.88 842 24.86 10 50 79 6.5 43.7
10:55 1012 29.88 842 24.86 9.9 49.8 80 6.6 43.8
11:00 1012 29.88 842 24.86 9.8 49.6 76 5.8 42.5
11:05 1012 29.88 842 24.86 9.8 49.6 79 6.4 43.4
11:10 1012 29.88 842 24.86 10 49.9 79 6.5 43.7
11:15 1012 29.88 842 24.86 10.1 50.1 79 6.7 44
11:20 1012 29.88 842 24.86 10.1 50.2 77 6.3 43.3
11:25 1012 29.88 842 24.86 10 50 81 7 44.6
11:30 1012 29.88 842 24.86 9.9 49.8 83 7.2 44.9
11:35 1012 29.88 842 24.86 9.9 49.7 83 7.1 44.8
11:40 1012 29.88 842 24.86 9.8 49.7 84 7.2 45
11:45 1013 29.91 842 24.86 10 50 85 7.7 45.8
11:50 1013 29.91 842 24.86 10.2 50.3 82 7.3 45.2
11:55 1013 29.91 842 24.86 9.9 49.8 83 7.2 45
12:00 1013 29.91 842 24.86 10 49.9 84 7.4 45.4
12:05 1013 29.91 842 24.86 10 50.1 81 7 44.6
12:10 1013 29.91 842 24.86 10 49.9 84 7.3 45.2
12:15 1013 29.91 842 24.86 10 50 87 8 46.4
12:20 1013 29.91 842 24.86 10.3 50.5 82 7.4 45.3
12:25 1013 29.91 842 24.86 10.2 50.4 77 6.4 43.6
12:30 1013 29.91 842 24.86 10.3 50.6 75 6.1 43
12:35 1013 29.91 842 24.86 10.5 51 79 7 44.7
12:40 1013 29.91 842 24.86 11 51.9 75 6.7 44.1
12:45 1013 29.91 842 24.86 10.8 51.4 78 7 44.7
12:50 1013 29.91 842 24.86 10.7 51.3 77 6.9 44.4
12:55 1013 29.91 842 24.86 10.7 51.3 77 6.9 44.5
13:00 1013 29.91 842 24.86 11.1 51.9 80 7.8 46
13:05 1013 29.91 842 24.86 11.4 52.6 77 7.5 45.6
13:10 1013 29.91 842 24.86 11.6 52.9 77 7.8 46
13:15 1013 29.91 842 24.86 11.5 52.6 76 7.3 45.2
13:20 1013 29.91 842 24.86 11 51.9 80 7.8 46.1
13:25 1013 29.91 842 24.86 10.7 51.3 83 8 46.3
13:30 1013 29.91 842 24.86 10.8 51.4 82 7.9 46.3
13:35 1013 29.91 842 24.86 10.7 51.2 84 8.1 46.6
13:40 1013 29.91 842 24.86 10.6 51.1 83 7.9 46.2
13:45 1013 29.91 842 24.86 10.7 51.3 83 7.9 46.2
13:50 1013 29.91 842 24.86 11 51.7 82 8 46.5
13:55 1013 29.91 842 24.86 11.1 51.9 80 7.8 46
14:00 1013 29.91 842 24.86 10.9 51.7 84 8.3 46.9
14:05 1013 29.91 842 24.86 11.3 52.4 82 8.4 47
14:10 1013 29.91 842 24.86 11.8 53.2 80 8.4 47.1
14:15 1013 29.91 842 24.86 11.8 53.3 78 8.1 46.6
14:20 1013 29.91 842 24.86 11.9 53.4 76 7.9 46.1
14:25 1013 29.91 842 24.86 11.7 53 75 7.4 45.3
14:30 1013 29.91 842 24.86 11.9 53.4 75 7.7 45.9
14:35 1013 29.91 842 24.86 11.9 53.4 76 7.8 46
14:40 1013 29.91 842 24.86 11.8 53.2 75 7.4 45.4
14:45 1013 29.91 842 24.86 11.8 53.3 78 8 46.5
14:50 1013 29.91 842 24.86 12 53.6 76 8 46.4
14:55 1013 29.91 842 24.86 12.3 54.2 75 8 46.4
15:00 1013 29.91 842 24.86 12.5 54.6 73 7.9 46.2
15:05 1013 29.91 842 24.86 12.6 54.7 71 7.5 45.6
15:10 1013 29.91 842 24.86 12.5 54.5 72 7.7 45.9
15:15 1013 29.91 842 24.86 12.8 55.1 72 8 46.4
15:20 1013 29.91 842 24.86 12.7 54.9 71 7.6 45.6
15:25 1013 29.91 842 24.86 12.7 54.9 71 7.5 45.6
15:30 1013 29.91 842 24.86 12.9 55.2 68 7.3 45.1
15:35 1013 29.91 842 24.86 12.8 55.1 69 7.4 45.3
15:40 1013 29.91 842 24.86 13.1 55.5 66 7 44.6
15:45 1013 29.91 842 24.86 13.2 55.7 68 7.4 45.3
15:50 1013 29.91 842 24.86 12.6 54.7 74 8.2 46.8
15:55 1013 29.91 842 24.86 11.6 52.8 78 7.8 46.1
16:00 1013 29.91 842 24.86 10.9 51.7 80 7.6 45.7
16:05 1013 29.91 842 24.86 11.2 52.1 80 7.8 46.1
16:10 1013 29.91 842 24.86 11 51.7 80 7.7 45.9
16:15 1013 29.91 842 24.86 10.6 51.1 86 8.5 47.2
16:20 1013 29.91 842 24.86 10.1 50.1 87 7.9 46.3
16:25 1013 29.91 842 24.86 9.9 49.9 90 8.4 47.1
16:30 1013 29.91 842 24.86 9.9 49.8 89 8.1 46.6
16:35 1013 29.91 842 24.86 9.9 49.8 90 8.4 47.1
16:40 1013 29.91 842 24.86 9.8 49.7 89 8.1 46.7
16:45 1013 29.91 842 24.86 9.9 49.8 89 8.2 46.7
16:50 1013 29.91 842 24.86 10.2 50.3 90 8.6 47.4
16:55 1013 29.91 842 24.86 10.3 50.5 90 8.7 47.6
17:00 1013 29.91 842 24.86 10.7 51.3 85 8.3 46.9
17:05 1013 29.91 842 24.86 11.8 53.3 79 8.4 47.2
17:10 1013 29.91 842 24.86 12.2 53.9 79 8.6 47.4
17:15 1013 29.91 842 24.86 12.2 53.9 79 8.8 47.8
17:20 1013 29.91 842 24.86 12.3 54.2 77 8.4 47.1
17:25 1013 29.91 842 24.86 12.2 53.9 79 8.7 47.7
17:30 1013 29.91 842 24.86 11.6 52.9 86 9.3 48.8
17:35 1013 29.91 842 24.86 10.8 51.4 88 8.9 48
17:40 1013 29.91 842 24.86 10.8 51.4 85 8.3 46.9
17:45 1013 29.91 842 24.86 10.9 51.5 85 8.5 47.2
17:50 1013 29.91 842 24.86 11.3 52.3 80 7.9 46.2
17:55 1013 29.91 842 24.86 11.5 52.6 81 8.3 46.9
18:00 1013 29.91 842 24.86 11.6 52.9 81 8.4 47.2
18:05 1013 29.91 842 24.86 11.5 52.8 80 8.2 46.7
18:10 1013 29.91 842 24.86 11.6 52.9 80 8.3 46.9
18:15 1013 29.91 842 24.86 11.7 53.1 81 8.6 47.4
18:20 1013 29.91 842 24.86 11.9 53.5 80 8.7 47.6
18:25 1013 29.91 842 24.86 12 53.5 77 8.1 46.6
18:30 1013 29.91 842 24.86 12 53.5 77 8.1 46.5
18:35 1013 29.91 842 24.86 12.2 54 76 8 46.5
18:40 1013 29.91 842 24.86 12.3 54.1 77 8.4 47.2
18:45 1013 29.91 842 24.86 11.9 53.4 78 8.1 46.6
18:50 1013 29.91 842 24.86 11.6 52.8 79 8 46.4
18:55 1013 29.91 842 24.86 11.5 52.7 76 7.5 45.6
19:00 1013 29.91 842 24.86 11.4 52.5 78 7.7 45.9
19:05 1013 29.91 842 24.86 11.5 52.6 76 7.4 45.3
19:10 1013 29.91 842 24.86 11.4 52.5 78 7.8 46
19:15 1013 29.91 842 24.86 11.3 52.4 77 7.4 45.3
19:20 1013 29.91 842 24.86 11.3 52.3 78 7.6 45.6
19:25 1013 29.91 842 24.86 11.3 52.3 80 8 46.3
19:30 1013 29.91 843 24.89 11.2 52.1 79 7.6 45.7
19:35 1013 29.91 843 24.89 11.4 52.5 77 7.5 45.5
19:40 1013 29.91 843 24.89 11.5 52.7 78 7.8 46
19:45 1013 29.91 842 24.86 11.6 52.8 77 7.7 45.9
19:50 1013 29.91 843 24.89 11.6 52.8 77 7.7 45.9
19:55 1013 29.91 843 24.89 11.6 52.8 77 7.7 45.9
20:00 1013 29.91 843 24.89 11.5 52.7 79 8 46.4
20:05 1013 29.91 843 24.89 11.6 52.8 79 8 46.4
20:10 1013 29.91 843 24.89 11.5 52.8 79 8 46.3
20:15 1013 29.91 843 24.89 11.6 52.8 76 7.5 45.5
20:20 1014 29.94 843 24.89 11.7 53 76 7.7 45.8
20:25 1014 29.94 843 24.89 11.7 53.1 75 7.5 45.5
20:30 1014 29.94 843 24.89 11.6 52.9 77 7.7 45.8
20:35 1014 29.94 843 24.89 11.6 52.9 76 7.5 45.5
20:40 1014 29.94 843 24.89 11.5 52.7 76 7.5 45.5
20:45 1014 29.94 843 24.89 11.5 52.7 76 7.4 45.2
20:50 1014 29.94 843 24.89 11.4 52.6 75 7.3 45.1
20:55 1014 29.94 843 24.89 11.4 52.5 76 7.3 45.1
21:00 1014 29.94 843 24.89 11.3 52.4 75 7.1 44.8
21:05 1014 29.94 843 24.89 11.3 52.4 75 7.1 44.7
21:10 1014 29.94 843 24.89 11.2 52.2 76 7.1 44.7
21:15 1014 29.94 843 24.89 11.1 51.9 76 6.9 44.5
21:20 1014 29.94 843 24.89 11 51.8 75 6.7 44.1
21:25 1014 29.94 843 24.89 11 51.7 77 7.2 44.9
21:30 1014 29.94 843 24.89 10.9 51.6 78 7.2 45
21:35 1014 29.94 843 24.89 10.8 51.5 77 7 44.7
21:40 1014 29.94 843 24.89 10.8 51.5 77 7 44.5
21:45 1014 29.94 843 24.89 10.8 51.4 78 7 44.7
21:50 1014 29.94 843 24.89 10.8 51.5 77 6.9 44.4
21:55 1014 29.94 843 24.89 10.7 51.3 78 7 44.5
22:00 1014 29.94 843 24.89 10.7 51.2 78 6.9 44.5
22:05 1014 29.94 843 24.89 10.6 51.1 77 6.8 44.2
22:10 1014 29.94 843 24.89 10.6 51 78 7 44.5
22:15 1014 29.94 843 24.89 10.5 50.8 80 7.1 44.8
22:20 1014 29.94 843 24.89 10.5 50.8 77 6.7 44
22:25 1014 29.94 843 24.89 10.5 50.8 77 6.5 43.8
22:30 1014 29.94 844 24.92 10.6 51 75 6.4 43.5
22:35 1014 29.94 844 24.92 10.6 51 74 6.2 43.2
22:40 1014 29.94 844 24.92 10.6 51 73 6 42.7
22:45 1014 29.94 844 24.92 10.6 51.1 75 6.3 43.4
22:50 1014 29.94 844 24.92 10.5 50.8 76 6.4 43.4
22:55 1014 29.94 844 24.92 10.5 50.9 77 6.6 43.8
23:00 1015 29.97 844 24.92 10.4 50.8 76 6.4 43.5
23:05 1014 29.94 844 24.92 10.3 50.6 75 6.1 43
23:10 1015 29.97 844 24.92 10.3 50.6 75 6.2 43.1
23:15 1015 29.97 844 24.92 10.2 50.4 77 6.3 43.4
23:20 1015 29.97 844 24.92 10.1 50.2 76 6.2 43.1
23:25 1015 29.97 844 24.92 10.1 50.1 77 6.3 43.3
23:30 1015 29.97 844 24.92 10 50 78 6.3 43.4
23:35 1015 29.97 844 24.92 9.9 49.8 78 6.3 43.4
23:40 1015 29.97 844 24.92 9.8 49.7 79 6.3 43.3
23:45 1015 29.97 844 24.92 9.8 49.6 79 6.2 43.2
23:50 1015 29.97 844 24.92 9.7 49.5 79 6.2 43.2
23:55 1015 29.97 844 24.92 9.7 49.5 79 6.2 43.1
24:00 1015 29.97 844 24.92 9.7 49.5 78 6 42.8